createdAt,value
2023-03-30T00:01:29.058Z,9.70
2023-03-30T00:03:56.694Z,9.70
2023-03-30T00:06:24.448Z,9.71
2023-03-30T00:08:58.262Z,9.71
2023-03-30T00:11:27.257Z,9.73
2023-03-30T00:13:55.765Z,9.73
2023-03-30T00:16:23.286Z,9.75
2023-03-30T00:18:51.468Z,9.75
2023-03-30T00:21:20.705Z,9.75
2023-03-30T00:23:48.896Z,9.75
2023-03-30T00:26:16.979Z,9.76
2023-03-30T00:28:45.453Z,9.76
2023-03-30T00:31:15.447Z,9.75
2023-03-30T00:33:47.151Z,9.75
2023-03-30T00:36:17.737Z,9.73
2023-03-30T00:38:46.244Z,9.74
2023-03-30T00:41:13.735Z,9.73
2023-03-30T00:43:58.582Z,9.72
2023-03-30T00:46:26.120Z,9.73
2023-03-30T00:48:58.546Z,9.71
2023-03-30T00:51:28.117Z,9.71
2023-03-30T00:54:03.538Z,9.71
2023-03-30T00:56:31.671Z,9.72
2023-03-30T00:59:02.722Z,9.72
2023-03-30T01:01:34.156Z,9.73
2023-03-30T01:04:03.673Z,9.75
2023-03-30T01:06:34.005Z,9.74
2023-03-30T01:09:01.881Z,9.75
2023-03-30T01:11:29.124Z,9.77
2023-03-30T01:14:03.494Z,9.79
2023-03-30T01:16:43.081Z,9.80
2023-03-30T01:19:31.651Z,9.81
2023-03-30T01:22:34.722Z,9.83
2023-03-30T01:25:18.869Z,9.83
2023-03-30T01:27:49.802Z,9.85
2023-03-30T01:30:32.621Z,9.84
2023-03-30T01:33:25.984Z,9.86
2023-03-30T01:36:25.835Z,9.85
2023-03-30T01:39:20.189Z,9.85
2023-03-30T01:42:13.954Z,9.86
2023-03-30T01:45:06.154Z,9.85
2023-03-30T01:47:40.605Z,9.86
2023-03-30T01:50:12.280Z,9.85
2023-03-30T01:52:53.877Z,9.85
2023-03-30T01:55:28.740Z,9.85
2023-03-30T01:58:22.266Z,9.86
2023-03-30T02:00:51.364Z,9.84
2023-03-30T02:03:28.358Z,9.85
2023-03-30T02:06:11.935Z,9.86
2023-03-30T02:08:41.160Z,9.86
2023-03-30T02:11:11.699Z,9.88
2023-03-30T02:13:42.335Z,9.89
2023-03-30T02:16:15.838Z,9.89
2023-03-30T02:18:46.520Z,9.89
2023-03-30T02:21:13.895Z,9.89
2023-03-30T02:23:45.371Z,9.90
2023-03-30T02:26:13.642Z,9.90
2023-03-30T02:28:40.931Z,9.90
2023-03-30T02:31:16.986Z,9.92
2023-03-30T02:34:00.277Z,9.93
2023-03-30T02:36:45.917Z,9.93
2023-03-30T02:39:34.020Z,9.92
2023-03-30T02:42:21.511Z,9.92
2023-03-30T02:45:29.947Z,9.92
2023-03-30T02:48:06.888Z,9.94
2023-03-30T02:50:48.330Z,9.95
2023-03-30T02:53:57.184Z,9.98
2023-03-30T02:57:00.855Z,10.00
2023-03-30T02:59:42.273Z,10.01
2023-03-30T03:02:20.301Z,10.03
2023-03-30T03:04:54.213Z,10.06
2023-03-30T03:07:34.166Z,10.08
2023-03-30T03:10:01.715Z,10.11
2023-03-30T03:12:29.219Z,10.15
2023-03-30T03:14:56.542Z,10.18
2023-03-30T03:17:25.004Z,10.21
2023-03-30T03:19:52.409Z,10.23
2023-03-30T03:22:20.959Z,10.24
2023-03-30T03:24:48.322Z,10.24
2023-03-30T03:27:15.570Z,10.25
2023-03-30T03:30:13.447Z,10.26
2023-03-30T03:32:46.424Z,10.27
2023-03-30T03:35:14.882Z,10.27
2023-03-30T03:37:42.176Z,10.28
2023-03-30T03:40:12.957Z,10.31
2023-03-30T03:42:40.893Z,10.33
2023-03-30T03:45:11.577Z,10.38
2023-03-30T03:47:52.296Z,10.45
2023-03-30T03:50:25.612Z,10.49
2023-03-30T03:52:53.498Z,10.51
2023-03-30T03:55:20.836Z,10.53
2023-03-30T03:57:48.270Z,10.52
2023-03-30T04:00:18.601Z,10.53
2023-03-30T04:02:51.613Z,10.51
2023-03-30T04:05:19.452Z,10.50
2023-03-30T04:07:46.780Z,10.51
2023-03-30T04:10:14.921Z,10.50
2023-03-30T04:13:02.400Z,10.49
2023-03-30T04:15:29.547Z,10.51
2023-03-30T04:18:21.685Z,10.51
2023-03-30T04:21:13.519Z,10.52
2023-03-30T04:24:00.228Z,10.52
2023-03-30T04:27:00.592Z,10.54
2023-03-30T04:29:45.817Z,10.54
2023-03-30T04:32:38.725Z,10.54
2023-03-30T04:35:19.205Z,10.53
2023-03-30T04:38:09.519Z,10.52
2023-03-30T04:41:10.354Z,10.52
2023-03-30T04:44:06.463Z,10.52
2023-03-30T04:47:04.521Z,10.50
2023-03-30T04:50:00.171Z,10.49
2023-03-30T04:52:45.861Z,10.50
2023-03-30T04:55:26.493Z,10.49
2023-03-30T04:58:05.321Z,10.49
2023-03-30T05:00:38.410Z,10.49
2023-03-30T05:03:24.537Z,10.49
2023-03-30T05:06:06.433Z,10.50
2023-03-30T05:08:52.447Z,10.50
2023-03-30T05:11:42.568Z,10.50
2023-03-30T05:14:36.035Z,10.49
2023-03-30T05:17:35.832Z,10.48
2023-03-30T05:20:35.729Z,10.49
2023-03-30T05:23:19.212Z,10.49
2023-03-30T05:25:55.068Z,10.50
2023-03-30T05:28:48.740Z,10.51
2023-03-30T05:31:34.747Z,10.52
2023-03-30T05:34:05.202Z,10.53
2023-03-30T05:36:45.042Z,10.53
2023-03-30T05:39:26.904Z,10.55
2023-03-30T05:42:16.891Z,10.57
2023-03-30T05:45:02.951Z,10.59
2023-03-30T05:47:49.016Z,10.62
2023-03-30T05:50:25.004Z,10.65
2023-03-30T05:52:59.487Z,10.68
2023-03-30T05:55:48.284Z,10.69
2023-03-30T05:58:39.352Z,10.71
2023-03-30T06:01:37.710Z,10.74
2023-03-30T06:04:05.564Z,10.77
2023-03-30T06:06:33.082Z,10.80
2023-03-30T06:09:00.966Z,10.80
2023-03-30T06:11:28.328Z,10.81
2023-03-30T06:14:10.713Z,10.81
2023-03-30T06:16:48.218Z,10.81
2023-03-30T06:19:16.854Z,10.81
2023-03-30T06:21:44.804Z,10.83
2023-03-30T06:24:34.931Z,10.84
2023-03-30T06:27:03.585Z,10.86
2023-03-30T06:29:31.611Z,10.87
2023-03-30T06:32:00.153Z,10.90
2023-03-30T06:34:46.446Z,10.96
2023-03-30T06:37:15.982Z,11.00
2023-03-30T06:39:45.580Z,11.04
2023-03-30T06:42:12.999Z,11.07
2023-03-30T06:45:07.065Z,11.09
2023-03-30T06:47:34.826Z,11.11
2023-03-30T06:50:02.677Z,11.13
2023-03-30T06:52:52.905Z,11.17
2023-03-30T06:55:21.880Z,11.18
2023-03-30T06:57:49.404Z,11.20
2023-03-30T07:00:19.012Z,11.20
2023-03-30T07:03:06.523Z,11.24
2023-03-30T07:05:51.852Z,11.27
2023-03-30T07:08:45.201Z,11.31
2023-03-30T07:11:16.214Z,11.36
2023-03-30T07:13:44.793Z,11.44
2023-03-30T07:16:12.466Z,11.52
2023-03-30T07:18:39.771Z,11.65
2023-03-30T07:21:07.604Z,11.80
2023-03-30T07:23:39.292Z,11.89
2023-03-30T07:26:08.300Z,11.95
2023-03-30T07:28:42.064Z,11.97
2023-03-30T07:31:13.844Z,11.97
2023-03-30T07:33:43.012Z,11.92
2023-03-30T07:36:14.486Z,11.87
2023-03-30T07:38:42.193Z,11.85
2023-03-30T07:41:13.007Z,11.83
2023-03-30T07:43:42.767Z,11.79
2023-03-30T07:46:12.481Z,11.75
2023-03-30T07:48:43.734Z,11.76
2023-03-30T07:51:13.708Z,11.76
2023-03-30T07:53:52.444Z,11.74
2023-03-30T07:56:29.244Z,11.75
2023-03-30T07:59:01.800Z,11.70
2023-03-30T08:01:34.151Z,11.67
2023-03-30T08:04:31.432Z,11.62
2023-03-30T08:06:59.137Z,11.55
2023-03-30T08:09:27.608Z,11.48
2023-03-30T08:11:54.904Z,11.42
2023-03-30T08:14:23.523Z,11.38
2023-03-30T08:16:50.857Z,11.32
2023-03-30T08:19:18.429Z,11.28
2023-03-30T08:21:45.603Z,11.26
2023-03-30T08:24:13.692Z,11.22
2023-03-30T08:26:42.449Z,11.16
2023-03-30T08:29:10.420Z,11.17
2023-03-30T08:31:37.806Z,11.15
2023-03-30T08:34:06.580Z,11.12
2023-03-30T08:36:33.897Z,11.04
2023-03-30T08:39:01.175Z,10.98
2023-03-30T08:41:28.776Z,10.93
2023-03-30T08:44:01.446Z,10.91
2023-03-30T08:46:30.270Z,10.90
2023-03-30T08:49:14.009Z,10.90
2023-03-30T08:51:42.585Z,10.93
2023-03-30T08:54:18.840Z,10.94
2023-03-30T08:56:55.457Z,10.92
2023-03-30T08:59:44.473Z,10.83
2023-03-30T09:02:32.436Z,10.76
2023-03-30T09:05:22.186Z,10.70
2023-03-30T09:08:14.743Z,10.64
2023-03-30T09:10:47.159Z,10.61
2023-03-30T09:13:22.940Z,10.62
2023-03-30T09:15:59.343Z,10.63
2023-03-30T09:18:36.035Z,10.63
2023-03-30T09:21:06.465Z,10.64
2023-03-30T09:23:36.114Z,10.69
2023-03-30T09:26:31.912Z,10.82
2023-03-30T09:29:06.338Z,10.96
2023-03-30T09:31:41.501Z,11.09
2023-03-30T09:34:34.158Z,11.28
2023-03-30T09:37:06.249Z,11.56
2023-03-30T09:39:36.396Z,11.75
2023-03-30T09:42:25.612Z,11.94
2023-03-30T09:45:00.810Z,12.04
2023-03-30T09:47:35.479Z,12.05
2023-03-30T09:50:19.259Z,12.15
2023-03-30T09:53:05.345Z,12.28
2023-03-30T09:55:35.366Z,12.38
2023-03-30T09:58:18.576Z,12.55
2023-03-30T10:00:47.360Z,12.61
2023-03-30T10:03:23.712Z,12.67
2023-03-30T10:06:07.774Z,12.73
2023-03-30T10:08:48.987Z,12.73
2023-03-30T10:11:30.674Z,12.67
2023-03-30T10:13:59.838Z,12.66
2023-03-30T10:16:30.628Z,12.67
2023-03-30T10:19:20.916Z,12.55
2023-03-30T10:21:53.055Z,12.39
2023-03-30T10:24:24.709Z,12.31
2023-03-30T10:27:11.292Z,12.25
2023-03-30T10:29:38.565Z,12.15
2023-03-30T10:32:16.412Z,12.01
2023-03-30T10:35:04.522Z,11.98
2023-03-30T10:37:39.017Z,12.03
2023-03-30T10:40:31.577Z,12.05
2023-03-30T10:43:00.883Z,12.16
2023-03-30T10:45:36.451Z,12.29
2023-03-30T10:48:31.877Z,12.35
2023-03-30T10:51:07.861Z,12.37
2023-03-30T10:53:35.149Z,12.37
2023-03-30T10:56:07.044Z,12.41
2023-03-30T10:58:42.881Z,12.38
2023-03-30T11:01:15.457Z,12.39
2023-03-30T11:03:49.064Z,12.37
2023-03-30T11:06:31.887Z,12.44
2023-03-30T11:09:04.776Z,12.45
2023-03-30T11:11:40.926Z,12.50
2023-03-30T11:14:16.632Z,12.52
2023-03-30T11:16:46.372Z,12.51
2023-03-30T11:19:29.643Z,12.45
2023-03-30T11:22:06.320Z,12.43
2023-03-30T11:24:35.698Z,12.45
2023-03-30T11:27:18.681Z,12.45
2023-03-30T11:29:53.850Z,12.45
2023-03-30T11:32:27.525Z,12.43
2023-03-30T11:35:27.191Z,12.42
2023-03-30T11:38:01.401Z,12.34
2023-03-30T11:40:44.704Z,12.35
2023-03-30T11:43:21.481Z,12.42
2023-03-30T11:46:04.050Z,12.45
2023-03-30T11:48:38.266Z,12.48
2023-03-30T11:51:11.623Z,12.47
2023-03-30T11:53:52.092Z,12.46
2023-03-30T11:56:28.477Z,12.45
2023-03-30T11:59:02.230Z,12.53
2023-03-30T12:01:38.640Z,12.59
2023-03-30T12:04:10.737Z,12.62
2023-03-30T12:06:48.388Z,12.66
2023-03-30T12:09:34.073Z,12.77
2023-03-30T12:12:27.041Z,12.84
2023-03-30T12:15:03.494Z,12.79
2023-03-30T12:17:50.727Z,12.81
2023-03-30T12:20:39.803Z,12.96
2023-03-30T12:23:42.221Z,13.07
2023-03-30T12:26:27.935Z,13.11
2023-03-30T12:31:59.449Z,13.27
2023-03-30T12:34:29.833Z,13.35
2023-03-30T12:37:13.332Z,13.43
2023-03-30T12:39:50.617Z,13.42
2023-03-30T12:42:35.726Z,13.43
2023-03-30T12:45:15.765Z,13.40
2023-03-30T12:48:07.283Z,13.38
2023-03-30T12:50:43.838Z,13.33
2023-03-30T12:53:45.636Z,13.37
2023-03-30T12:56:34.430Z,13.32
2023-03-30T12:59:33.228Z,13.29
2023-03-30T13:02:38.947Z,13.18
2023-03-30T13:05:31.192Z,13.11
2023-03-30T13:08:04.723Z,13.09
2023-03-30T13:10:31.966Z,13.11
2023-03-30T13:13:01.970Z,13.16
2023-03-30T13:15:46.484Z,13.25
2023-03-30T13:18:13.668Z,13.36
2023-03-30T13:20:46.775Z,13.55
2023-03-30T13:23:14.599Z,13.82
2023-03-30T13:25:59.990Z,13.83
2023-03-30T13:29:08.334Z,13.95
2023-03-30T13:32:06.266Z,14.16
2023-03-30T13:35:06.196Z,14.19
2023-03-30T13:37:59.603Z,14.14
2023-03-30T13:41:03.824Z,14.01
2023-03-30T13:43:32.425Z,13.90
2023-03-30T13:46:16.276Z,13.81
2023-03-30T13:49:06.587Z,13.88
2023-03-30T13:51:38.194Z,14.02
2023-03-30T13:54:16.798Z,14.11
2023-03-30T13:56:49.959Z,14.20
2023-03-30T13:59:21.368Z,14.30
2023-03-30T14:01:57.118Z,14.33
2023-03-30T14:04:30.265Z,14.36
2023-03-30T14:06:58.637Z,14.40
2023-03-30T14:09:30.774Z,14.31
2023-03-30T14:12:00.762Z,14.20
2023-03-30T14:14:35.980Z,14.19
2023-03-30T14:17:15.488Z,14.15
2023-03-30T14:19:53.298Z,14.07
2023-03-30T14:22:27.326Z,13.94
2023-03-30T14:25:04.706Z,13.80
2023-03-30T14:27:39.289Z,13.76
2023-03-30T14:30:20.852Z,13.73
2023-03-30T14:33:03.890Z,13.77
2023-03-30T14:35:31.464Z,13.68
2023-03-30T14:38:06.788Z,13.68
2023-03-30T14:40:41.591Z,13.71
2023-03-30T14:43:14.868Z,13.77
2023-03-30T14:45:43.284Z,13.82
2023-03-30T14:48:23.737Z,13.82
2023-03-30T14:50:51.057Z,13.79
2023-03-30T14:53:25.055Z,13.72
2023-03-30T14:55:57.646Z,13.67
2023-03-30T14:58:27.130Z,13.71
2023-03-30T15:00:58.628Z,13.82
2023-03-30T15:03:33.859Z,13.87
2023-03-30T15:06:03.754Z,13.84
2023-03-30T15:08:33.755Z,13.79
2023-03-30T15:11:06.814Z,13.80
2023-03-30T15:13:58.962Z,13.75
2023-03-30T15:16:29.456Z,13.71
2023-03-30T15:19:21.350Z,13.72
2023-03-30T15:21:53.736Z,13.64
2023-03-30T15:24:26.344Z,13.55
2023-03-30T15:26:57.534Z,13.46
2023-03-30T15:29:26.287Z,13.36
2023-03-30T15:32:18.348Z,13.24
2023-03-30T15:35:23.058Z,13.18
2023-03-30T15:38:13.554Z,13.17
2023-03-30T15:40:50.189Z,13.11
2023-03-30T15:43:30.131Z,13.11
2023-03-30T15:46:12.077Z,13.11
2023-03-30T15:48:48.241Z,13.09
2023-03-30T15:51:19.537Z,13.07
2023-03-30T15:54:02.409Z,13.04
2023-03-30T15:56:37.696Z,12.95
2023-03-30T15:59:06.341Z,12.94
2023-03-30T16:01:53.997Z,12.92
2023-03-30T16:04:24.126Z,12.88
2023-03-30T16:06:52.945Z,12.84
2023-03-30T16:09:20.358Z,12.82
2023-03-30T16:11:47.689Z,12.82
2023-03-30T16:14:20.307Z,12.81
2023-03-30T16:16:48.698Z,12.77
2023-03-30T16:19:18.871Z,12.76
2023-03-30T16:21:46.397Z,12.72
2023-03-30T16:24:13.598Z,12.70
2023-03-30T16:26:41.108Z,12.65
2023-03-30T16:29:19.999Z,12.61
2023-03-30T16:31:48.547Z,12.61
2023-03-30T16:34:15.977Z,12.60
2023-03-30T16:36:44.136Z,12.60
2023-03-30T16:39:23.798Z,12.58
2023-03-30T16:41:52.212Z,12.55
2023-03-30T16:44:22.384Z,12.51
2023-03-30T16:46:50.584Z,12.48
2023-03-30T16:49:23.073Z,12.46
2023-03-30T16:51:53.058Z,12.44
2023-03-30T16:54:31.076Z,12.42
2023-03-30T16:57:01.561Z,12.38
2023-03-30T16:59:31.104Z,12.36
2023-03-30T17:01:59.959Z,12.36
2023-03-30T17:04:28.283Z,12.35
2023-03-30T17:06:55.798Z,12.34
2023-03-30T17:09:23.511Z,12.32
2023-03-30T17:11:51.013Z,12.28
2023-03-30T17:14:20.996Z,12.26
2023-03-30T17:16:48.339Z,12.22
2023-03-30T17:19:16.020Z,12.16
2023-03-30T17:21:43.827Z,12.09
2023-03-30T17:24:12.710Z,11.99
2023-03-30T17:26:41.001Z,11.86
2023-03-30T17:29:10.387Z,11.75
2023-03-30T17:31:39.040Z,11.67
2023-03-30T17:34:07.450Z,11.60
2023-03-30T17:36:35.232Z,11.54
2023-03-30T17:39:05.035Z,11.45
2023-03-30T17:41:34.064Z,11.34
2023-03-30T17:44:01.340Z,11.27
2023-03-30T17:46:28.674Z,11.23
2023-03-30T17:48:56.029Z,11.19
2023-03-30T17:51:23.344Z,11.16
2023-03-30T17:53:50.862Z,11.12
2023-03-30T17:56:18.197Z,11.09
2023-03-30T17:58:45.510Z,11.08
2023-03-30T18:01:13.956Z,11.06
2023-03-30T18:03:42.427Z,11.04
2023-03-30T18:06:12.276Z,11.02
2023-03-30T18:08:39.824Z,11.01
2023-03-30T18:11:07.328Z,10.99
2023-03-30T18:13:35.153Z,10.98
2023-03-30T18:16:02.540Z,10.96
2023-03-30T18:18:31.045Z,10.98
2023-03-30T18:21:03.718Z,10.99
2023-03-30T18:23:33.927Z,10.98
2023-03-30T18:26:08.304Z,10.98
2023-03-30T18:28:39.308Z,10.99
2023-03-30T18:31:06.892Z,10.99
2023-03-30T18:33:34.607Z,10.96
2023-03-30T18:36:05.997Z,10.96
2023-03-30T18:38:33.663Z,10.94
2023-03-30T18:41:01.605Z,10.93
2023-03-30T18:43:29.117Z,10.93
2023-03-30T18:46:01.090Z,10.92
2023-03-30T18:48:30.074Z,10.90
2023-03-30T18:50:58.451Z,10.87
2023-03-30T18:53:28.340Z,10.88
2023-03-30T18:56:00.291Z,10.89
2023-03-30T18:58:41.818Z,10.90
2023-03-30T19:01:11.998Z,10.89
2023-03-30T19:03:40.648Z,10.88
2023-03-30T19:06:22.165Z,10.86
2023-03-30T19:08:49.589Z,10.84
2023-03-30T19:11:21.978Z,10.83
2023-03-30T19:13:50.043Z,10.83
2023-03-30T19:16:18.753Z,10.81
2023-03-30T19:18:46.184Z,10.81
2023-03-30T19:21:18.016Z,10.80
2023-03-30T19:23:47.315Z,10.76
2023-03-30T19:26:14.707Z,10.76
2023-03-30T19:28:41.978Z,10.76
2023-03-30T19:31:15.841Z,10.75
2023-03-30T19:33:43.787Z,10.72
2023-03-30T19:36:11.105Z,10.72
2023-03-30T19:38:38.666Z,10.72
2023-03-30T19:41:07.513Z,10.72
2023-03-30T19:43:35.623Z,10.71
2023-03-30T19:46:03.229Z,10.70
2023-03-30T19:48:30.809Z,10.70
2023-03-30T19:50:58.143Z,10.68
2023-03-30T19:53:27.469Z,10.67
2023-03-30T19:55:54.895Z,10.67
2023-03-30T19:58:22.204Z,10.67
2023-03-30T20:00:50.771Z,10.67
2023-03-30T20:03:19.269Z,10.67
2023-03-30T20:05:50.389Z,10.68
2023-03-30T20:08:23.901Z,10.66
2023-03-30T20:10:52.813Z,10.65
2023-03-30T20:13:24.763Z,10.65
2023-03-30T20:15:56.109Z,10.63
2023-03-30T20:18:23.647Z,10.61
2023-03-30T20:20:51.997Z,10.60
2023-03-30T20:23:19.457Z,10.59
2023-03-30T20:25:49.465Z,10.57
2023-03-30T20:28:17.882Z,10.55
2023-03-30T20:30:45.266Z,10.52
2023-03-30T20:33:12.984Z,10.48
2023-03-30T20:35:40.986Z,10.45
2023-03-30T20:38:11.005Z,10.43
2023-03-30T20:40:38.252Z,10.40
2023-03-30T20:43:10.306Z,10.36
2023-03-30T20:45:46.376Z,10.32
2023-03-30T20:48:26.634Z,10.30
2023-03-30T20:50:55.802Z,10.27
2023-03-30T20:53:23.739Z,10.26
2023-03-30T20:55:51.281Z,10.26
2023-03-30T20:58:22.496Z,10.25
2023-03-30T21:00:54.041Z,10.25
2023-03-30T21:03:21.754Z,10.23
2023-03-30T21:06:10.016Z,10.22
2023-03-30T21:08:37.739Z,10.22
2023-03-30T21:11:07.137Z,10.24
2023-03-30T21:13:35.404Z,10.23
2023-03-30T21:16:07.847Z,10.23
2023-03-30T21:18:36.566Z,10.23
2023-03-30T21:21:06.036Z,10.23
2023-03-30T21:23:34.468Z,10.24
2023-03-30T21:26:06.482Z,10.24
2023-03-30T21:28:34.918Z,10.25
2023-03-30T21:31:07.840Z,10.24
2023-03-30T21:33:37.091Z,10.23
2023-03-30T21:36:05.308Z,10.23
2023-03-30T21:38:33.435Z,10.24
2023-03-30T21:41:01.940Z,10.23
2023-03-30T21:43:31.881Z,10.21
2023-03-30T21:46:05.318Z,10.20
2023-03-30T21:48:35.690Z,10.19
2023-03-30T21:51:28.952Z,10.17
2023-03-30T21:53:57.416Z,10.14
2023-03-30T21:56:27.713Z,10.10
2023-03-30T21:58:54.954Z,10.06
2023-03-30T22:01:24.331Z,10.03
2023-03-30T22:03:53.258Z,10.00
2023-03-30T22:06:21.611Z,9.99
2023-03-30T22:08:49.203Z,9.98
2023-03-30T22:11:22.246Z,9.95
2023-03-30T22:13:50.210Z,9.93
2023-03-30T22:16:22.331Z,9.90
2023-03-30T22:18:50.797Z,9.87
2023-03-30T22:21:21.289Z,9.83
2023-03-30T22:23:48.533Z,9.81
2023-03-30T22:26:16.683Z,9.79
2023-03-30T22:28:43.982Z,9.73
2023-03-30T22:31:14.466Z,9.70
2023-03-30T22:33:41.751Z,9.66
2023-03-30T22:36:26.365Z,9.60
2023-03-30T22:38:56.076Z,9.57
2023-03-30T22:41:26.704Z,9.56
2023-03-30T22:43:54.993Z,9.54
2023-03-30T22:46:23.239Z,9.52
2023-03-30T22:48:51.803Z,9.51
2023-03-30T22:51:28.178Z,9.50
2023-03-30T22:53:59.472Z,9.47
2023-03-30T22:56:29.002Z,9.43
2023-03-30T22:58:57.025Z,9.40
2023-03-30T23:01:26.694Z,9.36
2023-03-30T23:03:54.492Z,9.33
2023-03-30T23:06:21.876Z,9.30
2023-03-30T23:08:49.265Z,9.29
2023-03-30T23:11:17.039Z,9.26
2023-03-30T23:13:44.751Z,9.23
2023-03-30T23:16:11.950Z,9.21
2023-03-30T23:18:39.786Z,9.17
2023-03-30T23:21:11.160Z,9.16
2023-03-30T23:23:38.955Z,9.14
2023-03-30T23:26:09.740Z,9.13
2023-03-30T23:28:39.852Z,9.12
2023-03-30T23:31:12.428Z,9.08
2023-03-30T23:33:41.079Z,9.08
2023-03-30T23:36:10.422Z,9.07
2023-03-30T23:38:38.363Z,9.06
2023-03-30T23:41:06.609Z,9.06
2023-03-30T23:43:37.035Z,9.05
2023-03-30T23:46:04.839Z,9.06
2023-03-30T23:48:32.460Z,9.07
2023-03-30T23:50:59.806Z,9.08
2023-03-30T23:53:27.511Z,9.07
2023-03-30T23:55:54.912Z,9.06
2023-03-30T23:58:22.443Z,9.03
